sensor_id;sensor_type;location;lat;lon;timestamp;P1;durP1;ratioP1;P2;durP2;ratioP2
58294;SDS011;45705;55.592;37.460;2023-01-01T00:01:04;24.70;;;11.63;;
58294;SDS011;45705;55.592;37.460;2023-01-01T00:03:33;20.65;;;10.00;;
58294;SDS011;45705;55.592;37.460;2023-01-01T00:06:06;21.92;;;11.80;;
58294;SDS011;45705;55.592;37.460;2023-01-01T00:08:33;22.65;;;10.98;;
58294;SDS011;45705;55.592;37.460;2023-01-01T00:11:00;27.15;;;9.35;;
58294;SDS011;45705;55.592;37.460;2023-01-01T00:13:27;27.02;;;12.15;;
58294;SDS011;45705;55.592;37.460;2023-01-01T00:15:52;22.60;;;11.93;;
58294;SDS011;45705;55.592;37.460;2023-01-01T00:18:18;21.55;;;11.85;;
58294;SDS011;45705;55.592;37.460;2023-01-01T00:20:44;24.50;;;10.55;;
58294;SDS011;45705;55.592;37.460;2023-01-01T00:23:09;22.38;;;11.52;;
58294;SDS011;45705;55.592;37.460;2023-01-01T00:25:35;20.23;;;10.50;;
58294;SDS011;45705;55.592;37.460;2023-01-01T00:28:01;22.80;;;11.02;;
58294;SDS011;45705;55.592;37.460;2023-01-01T00:30:27;19.67;;;8.85;;
58294;SDS011;45705;55.592;37.460;2023-01-01T00:32:53;21.13;;;9.88;;
58294;SDS011;45705;55.592;37.460;2023-01-01T00:35:18;16.80;;;9.88;;
58294;SDS011;45705;55.592;37.460;2023-01-01T00:37:44;12.30;;;7.78;;
58294;SDS011;45705;55.592;37.460;2023-01-01T00:40:10;16.42;;;9.10;;
58294;SDS011;45705;55.592;37.460;2023-01-01T00:42:36;15.63;;;9.25;;
58294;SDS011;45705;55.592;37.460;2023-01-01T00:45:05;20.25;;;8.73;;
58294;SDS011;45705;55.592;37.460;2023-01-01T00:47:31;14.40;;;6.93;;
58294;SDS011;45705;55.592;37.460;2023-01-01T00:49:57;18.15;;;9.38;;
58294;SDS011;45705;55.592;37.460;2023-01-01T00:52:22;13.70;;;7.75;;
58294;SDS011;45705;55.592;37.460;2023-01-01T00:54:49;14.05;;;8.15;;
58294;SDS011;45705;55.592;37.460;2023-01-01T00:57:15;15.18;;;7.85;;
58294;SDS011;45705;55.592;37.460;2023-01-01T00:59:40;17.30;;;7.15;;
58294;SDS011;45705;55.592;37.460;2023-01-01T01:02:06;15.15;;;7.70;;
58294;SDS011;45705;55.592;37.460;2023-01-01T01:04:32;14.75;;;8.20;;
58294;SDS011;45705;55.592;37.460;2023-01-01T01:06:57;15.00;;;8.10;;
58294;SDS011;45705;55.592;37.460;2023-01-01T01:09:23;19.27;;;8.35;;
58294;SDS011;45705;55.592;37.460;2023-01-01T01:11:49;13.38;;;7.90;;
58294;SDS011;45705;55.592;37.460;2023-01-01T01:14:14;13.02;;;7.20;;
58294;SDS011;45705;55.592;37.460;2023-01-01T01:16:40;12.32;;;7.30;;
58294;SDS011;45705;55.592;37.460;2023-01-01T01:19:06;11.98;;;6.30;;
58294;SDS011;45705;55.592;37.460;2023-01-01T01:21:34;12.68;;;7.07;;
58294;SDS011;45705;55.592;37.460;2023-01-01T01:24:00;8.82;;;5.32;;
58294;SDS011;45705;55.592;37.460;2023-01-01T01:26:28;9.65;;;6.22;;
58294;SDS011;45705;55.592;37.460;2023-01-01T01:28:55;11.35;;;6.78;;
58294;SDS011;45705;55.592;37.460;2023-01-01T01:31:22;8.32;;;5.68;;
58294;SDS011;45705;55.592;37.460;2023-01-01T01:33:50;8.95;;;4.60;;
58294;SDS011;45705;55.592;37.460;2023-01-01T01:36:17;11.20;;;6.32;;
58294;SDS011;45705;55.592;37.460;2023-01-01T01:38:43;10.25;;;6.07;;
58294;SDS011;45705;55.592;37.460;2023-01-01T01:41:10;12.57;;;5.43;;
58294;SDS011;45705;55.592;37.460;2023-01-01T01:46:11;9.15;;;5.38;;
58294;SDS011;45705;55.592;37.460;2023-01-01T01:48:42;8.82;;;4.95;;
58294;SDS011;45705;55.592;37.460;2023-01-01T01:51:13;9.27;;;5.90;;
58294;SDS011;45705;55.592;37.460;2023-01-01T01:53:47;8.00;;;4.38;;
58294;SDS011;45705;55.592;37.460;2023-01-01T01:56:20;7.28;;;3.97;;
58294;SDS011;45705;55.592;37.460;2023-01-01T01:58:53;7.93;;;5.03;;
58294;SDS011;45705;55.592;37.460;2023-01-01T02:01:22;8.38;;;4.93;;
58294;SDS011;45705;55.592;37.460;2023-01-01T02:03:50;8.43;;;4.45;;
58294;SDS011;45705;55.592;37.460;2023-01-01T02:06:18;8.75;;;5.28;;
58294;SDS011;45705;55.592;37.460;2023-01-01T02:08:44;10.35;;;4.53;;
58294;SDS011;45705;55.592;37.460;2023-01-01T02:11:11;6.40;;;4.47;;
58294;SDS011;45705;55.592;37.460;2023-01-01T02:13:37;9.82;;;5.03;;
58294;SDS011;45705;55.592;37.460;2023-01-01T02:18:51;7.35;;;5.13;;
58294;SDS011;45705;55.592;37.460;2023-01-01T02:21:55;5.95;;;3.78;;
58294;SDS011;45705;55.592;37.460;2023-01-01T02:27:13;7.82;;;5.00;;
58294;SDS011;45705;55.592;37.460;2023-01-01T02:29:54;10.90;;;5.45;;
58294;SDS011;45705;55.592;37.460;2023-01-01T02:32:34;8.40;;;5.32;;
58294;SDS011;45705;55.592;37.460;2023-01-01T02:35:08;8.15;;;4.88;;
58294;SDS011;45705;55.592;37.460;2023-01-01T02:37:59;6.68;;;4.18;;
58294;SDS011;45705;55.592;37.460;2023-01-01T02:40:46;8.15;;;4.32;;
58294;SDS011;45705;55.592;37.460;2023-01-01T02:43:14;9.75;;;6.03;;
58294;SDS011;45705;55.592;37.460;2023-01-01T02:45:40;7.78;;;5.30;;
58294;SDS011;45705;55.592;37.460;2023-01-01T02:51:03;9.15;;;4.95;;
58294;SDS011;45705;55.592;37.460;2023-01-01T02:53:36;8.18;;;5.30;;
58294;SDS011;45705;55.592;37.460;2023-01-01T03:02:09;8.65;;;4.97;;
58294;SDS011;45705;55.592;37.460;2023-01-01T03:10:22;9.60;;;6.15;;
58294;SDS011;45705;55.592;37.460;2023-01-01T03:13:35;9.63;;;5.80;;
58294;SDS011;45705;55.592;37.460;2023-01-01T03:19:00;13.60;;;6.82;;
58294;SDS011;45705;55.592;37.460;2023-01-01T03:21:39;8.68;;;5.25;;
58294;SDS011;45705;55.592;37.460;2023-01-01T03:24:10;9.52;;;6.45;;
58294;SDS011;45705;55.592;37.460;2023-01-01T03:26:41;8.80;;;5.78;;
58294;SDS011;45705;55.592;37.460;2023-01-01T03:29:11;10.15;;;6.63;;
58294;SDS011;45705;55.592;37.460;2023-01-01T03:31:39;11.68;;;6.72;;
58294;SDS011;45705;55.592;37.460;2023-01-01T03:34:11;10.43;;;6.25;;
58294;SDS011;45705;55.592;37.460;2023-01-01T03:36:42;12.15;;;7.05;;
58294;SDS011;45705;55.592;37.460;2023-01-01T03:39:22;13.20;;;6.80;;
58294;SDS011;45705;55.592;37.460;2023-01-01T03:47:11;11.70;;;7.65;;
58294;SDS011;45705;55.592;37.460;2023-01-01T03:49:38;9.43;;;6.93;;
58294;SDS011;45705;55.592;37.460;2023-01-01T03:54:52;17.17;;;7.00;;
58294;SDS011;45705;55.592;37.460;2023-01-01T04:00:26;11.75;;;7.47;;
58294;SDS011;45705;55.592;37.460;2023-01-01T04:03:05;14.75;;;7.50;;
58294;SDS011;45705;55.592;37.460;2023-01-01T04:05:37;14.13;;;6.40;;
58294;SDS011;45705;55.592;37.460;2023-01-01T04:08:06;11.15;;;7.32;;
58294;SDS011;45705;55.592;37.460;2023-01-01T04:10:33;11.32;;;7.10;;
58294;SDS011;45705;55.592;37.460;2023-01-01T04:13:04;14.18;;;6.90;;
58294;SDS011;45705;55.592;37.460;2023-01-01T04:15:31;16.10;;;7.25;;
58294;SDS011;45705;55.592;37.460;2023-01-01T04:17:57;14.80;;;7.55;;
58294;SDS011;45705;55.592;37.460;2023-01-01T04:20:24;10.20;;;5.90;;
58294;SDS011;45705;55.592;37.460;2023-01-01T04:22:50;11.90;;;6.40;;
58294;SDS011;45705;55.592;37.460;2023-01-01T04:25:16;8.38;;;5.55;;
58294;SDS011;45705;55.592;37.460;2023-01-01T04:27:42;13.63;;;6.88;;
58294;SDS011;45705;55.592;37.460;2023-01-01T04:30:10;11.63;;;7.10;;
58294;SDS011;45705;55.592;37.460;2023-01-01T04:32:37;7.78;;;4.93;;
58294;SDS011;45705;55.592;37.460;2023-01-01T04:35:04;12.07;;;7.40;;
58294;SDS011;45705;55.592;37.460;2023-01-01T04:37:33;9.13;;;6.15;;
58294;SDS011;45705;55.592;37.460;2023-01-01T04:40:00;10.13;;;6.03;;
58294;SDS011;45705;55.592;37.460;2023-01-01T04:42:26;9.38;;;6.60;;
58294;SDS011;45705;55.592;37.460;2023-01-01T04:44:51;9.02;;;6.43;;
58294;SDS011;45705;55.592;37.460;2023-01-01T04:47:17;9.35;;;6.10;;
58294;SDS011;45705;55.592;37.460;2023-01-01T04:49:42;10.02;;;6.65;;
58294;SDS011;45705;55.592;37.460;2023-01-01T04:52:08;11.70;;;6.70;;
58294;SDS011;45705;55.592;37.460;2023-01-01T04:54:34;9.05;;;6.68;;
58294;SDS011;45705;55.592;37.460;2023-01-01T04:56:59;9.68;;;6.00;;
58294;SDS011;45705;55.592;37.460;2023-01-01T04:59:25;9.05;;;6.20;;
58294;SDS011;45705;55.592;37.460;2023-01-01T05:01:51;10.45;;;6.20;;
58294;SDS011;45705;55.592;37.460;2023-01-01T05:04:17;10.73;;;6.88;;
58294;SDS011;45705;55.592;37.460;2023-01-01T05:06:42;9.55;;;6.68;;
58294;SDS011;45705;55.592;37.460;2023-01-01T05:09:09;11.05;;;6.10;;
58294;SDS011;45705;55.592;37.460;2023-01-01T05:11:35;11.07;;;6.65;;
58294;SDS011;45705;55.592;37.460;2023-01-01T05:14:01;8.90;;;5.13;;
58294;SDS011;45705;55.592;37.460;2023-01-01T05:16:29;8.13;;;6.10;;
58294;SDS011;45705;55.592;37.460;2023-01-01T05:18:56;9.00;;;6.22;;
58294;SDS011;45705;55.592;37.460;2023-01-01T05:21:26;8.48;;;5.80;;
58294;SDS011;45705;55.592;37.460;2023-01-01T05:23:58;8.68;;;5.43;;
58294;SDS011;45705;55.592;37.460;2023-01-01T05:26:26;7.90;;;5.60;;
58294;SDS011;45705;55.592;37.460;2023-01-01T05:28:56;8.50;;;5.82;;
58294;SDS011;45705;55.592;37.460;2023-01-01T05:31:23;8.63;;;6.13;;
58294;SDS011;45705;55.592;37.460;2023-01-01T05:33:50;6.95;;;5.10;;
58294;SDS011;45705;55.592;37.460;2023-01-01T05:36:18;9.50;;;6.40;;
58294;SDS011;45705;55.592;37.460;2023-01-01T05:38:47;10.32;;;6.10;;
58294;SDS011;45705;55.592;37.460;2023-01-01T05:41:14;8.38;;;5.63;;
58294;SDS011;45705;55.592;37.460;2023-01-01T05:43:41;6.97;;;5.15;;
58294;SDS011;45705;55.592;37.460;2023-01-01T05:46:11;6.75;;;5.63;;
58294;SDS011;45705;55.592;37.460;2023-01-01T05:48:43;7.07;;;5.55;;
58294;SDS011;45705;55.592;37.460;2023-01-01T05:51:13;8.35;;;6.00;;
58294;SDS011;45705;55.592;37.460;2023-01-01T05:53:41;7.82;;;5.82;;
58294;SDS011;45705;55.592;37.460;2023-01-01T05:56:09;8.45;;;5.40;;
58294;SDS011;45705;55.592;37.460;2023-01-01T05:58:36;7.32;;;5.32;;
58294;SDS011;45705;55.592;37.460;2023-01-01T06:01:14;7.10;;;5.40;;
58294;SDS011;45705;55.592;37.460;2023-01-01T06:03:42;5.38;;;4.43;;
58294;SDS011;45705;55.592;37.460;2023-01-01T06:06:09;6.65;;;4.55;;
58294;SDS011;45705;55.592;37.460;2023-01-01T06:08:39;7.55;;;5.45;;
58294;SDS011;45705;55.592;37.460;2023-01-01T06:11:06;9.43;;;5.60;;
58294;SDS011;45705;55.592;37.460;2023-01-01T06:13:34;7.25;;;5.38;;
58294;SDS011;45705;55.592;37.460;2023-01-01T06:16:00;7.15;;;5.35;;
58294;SDS011;45705;55.592;37.460;2023-01-01T06:18:31;7.90;;;5.32;;
58294;SDS011;45705;55.592;37.460;2023-01-01T06:23:40;6.65;;;4.95;;
58294;SDS011;45705;55.592;37.460;2023-01-01T06:26:10;8.02;;;5.00;;
58294;SDS011;45705;55.592;37.460;2023-01-01T06:28:36;6.45;;;5.28;;
58294;SDS011;45705;55.592;37.460;2023-01-01T06:31:03;7.30;;;5.03;;
58294;SDS011;45705;55.592;37.460;2023-01-01T06:33:30;7.43;;;5.07;;
58294;SDS011;45705;55.592;37.460;2023-01-01T06:35:56;7.07;;;5.45;;
58294;SDS011;45705;55.592;37.460;2023-01-01T06:38:22;7.10;;;4.50;;
58294;SDS011;45705;55.592;37.460;2023-01-01T06:40:54;6.45;;;5.15;;
58294;SDS011;45705;55.592;37.460;2023-01-01T06:43:21;7.68;;;4.07;;
58294;SDS011;45705;55.592;37.460;2023-01-01T06:45:46;8.25;;;4.55;;
58294;SDS011;45705;55.592;37.460;2023-01-01T06:48:12;5.53;;;4.47;;
58294;SDS011;45705;55.592;37.460;2023-01-01T06:50:38;6.40;;;4.40;;
58294;SDS011;45705;55.592;37.460;2023-01-01T06:53:03;6.93;;;4.30;;
58294;SDS011;45705;55.592;37.460;2023-01-01T06:55:29;7.32;;;4.45;;
58294;SDS011;45705;55.592;37.460;2023-01-01T06:57:55;6.68;;;5.15;;
58294;SDS011;45705;55.592;37.460;2023-01-01T07:00:21;7.38;;;4.82;;
58294;SDS011;45705;55.592;37.460;2023-01-01T07:02:47;6.75;;;4.88;;
58294;SDS011;45705;55.592;37.460;2023-01-01T07:05:12;7.18;;;4.05;;
58294;SDS011;45705;55.592;37.460;2023-01-01T07:07:38;6.40;;;5.03;;
58294;SDS011;45705;55.592;37.460;2023-01-01T07:10:04;8.63;;;5.13;;
58294;SDS011;45705;55.592;37.460;2023-01-01T07:12:30;7.43;;;4.72;;
58294;SDS011;45705;55.592;37.460;2023-01-01T07:14:56;6.40;;;4.35;;
58294;SDS011;45705;55.592;37.460;2023-01-01T07:17:21;7.15;;;5.65;;
58294;SDS011;45705;55.592;37.460;2023-01-01T07:19:47;7.55;;;5.25;;
58294;SDS011;45705;55.592;37.460;2023-01-01T07:22:13;7.53;;;5.35;;
58294;SDS011;45705;55.592;37.460;2023-01-01T07:24:38;7.85;;;5.05;;
58294;SDS011;45705;55.592;37.460;2023-01-01T07:27:04;6.63;;;4.78;;
58294;SDS011;45705;55.592;37.460;2023-01-01T07:29:30;6.50;;;5.15;;
58294;SDS011;45705;55.592;37.460;2023-01-01T07:31:55;8.32;;;5.65;;
58294;SDS011;45705;55.592;37.460;2023-01-01T07:34:21;6.70;;;4.93;;
58294;SDS011;45705;55.592;37.460;2023-01-01T07:36:48;9.32;;;5.90;;
58294;SDS011;45705;55.592;37.460;2023-01-01T07:39:13;7.65;;;5.00;;
58294;SDS011;45705;55.592;37.460;2023-01-01T07:41:39;7.00;;;4.90;;
58294;SDS011;45705;55.592;37.460;2023-01-01T07:44:05;8.02;;;5.32;;
58294;SDS011;45705;55.592;37.460;2023-01-01T07:46:32;6.75;;;5.03;;
58294;SDS011;45705;55.592;37.460;2023-01-01T07:48:59;8.63;;;5.17;;
58294;SDS011;45705;55.592;37.460;2023-01-01T07:51:24;8.30;;;5.72;;
58294;SDS011;45705;55.592;37.460;2023-01-01T07:53:50;8.38;;;4.85;;
58294;SDS011;45705;55.592;37.460;2023-01-01T07:56:16;7.43;;;5.18;;
58294;SDS011;45705;55.592;37.460;2023-01-01T07:58:42;8.18;;;5.15;;
58294;SDS011;45705;55.592;37.460;2023-01-01T08:01:11;7.80;;;4.93;;
58294;SDS011;45705;55.592;37.460;2023-01-01T08:03:38;7.90;;;5.68;;
58294;SDS011;45705;55.592;37.460;2023-01-01T08:06:06;7.20;;;5.10;;
58294;SDS011;45705;55.592;37.460;2023-01-01T08:08:35;7.13;;;4.80;;
58294;SDS011;45705;55.592;37.460;2023-01-01T08:11:01;7.25;;;5.00;;
58294;SDS011;45705;55.592;37.460;2023-01-01T08:13:29;7.30;;;4.72;;
58294;SDS011;45705;55.592;37.460;2023-01-01T08:15:56;8.65;;;5.13;;
58294;SDS011;45705;55.592;37.460;2023-01-01T08:18:22;7.78;;;5.05;;
58294;SDS011;45705;55.592;37.460;2023-01-01T08:20:48;9.90;;;5.30;;
58294;SDS011;45705;55.592;37.460;2023-01-01T08:23:13;6.38;;;4.60;;
58294;SDS011;45705;55.592;37.460;2023-01-01T08:25:39;7.80;;;5.82;;
58294;SDS011;45705;55.592;37.460;2023-01-01T08:28:05;7.15;;;4.85;;
58294;SDS011;45705;55.592;37.460;2023-01-01T08:30:30;8.10;;;5.60;;
58294;SDS011;45705;55.592;37.460;2023-01-01T08:32:56;9.15;;;5.68;;
58294;SDS011;45705;55.592;37.460;2023-01-01T08:35:22;8.38;;;6.15;;
58294;SDS011;45705;55.592;37.460;2023-01-01T08:37:47;8.52;;;5.22;;
58294;SDS011;45705;55.592;37.460;2023-01-01T08:40:13;11.00;;;6.18;;
58294;SDS011;45705;55.592;37.460;2023-01-01T08:42:40;9.27;;;5.97;;
58294;SDS011;45705;55.592;37.460;2023-01-01T08:45:06;8.02;;;5.93;;
58294;SDS011;45705;55.592;37.460;2023-01-01T08:47:32;9.30;;;5.95;;
58294;SDS011;45705;55.592;37.460;2023-01-01T08:49:58;8.75;;;5.90;;
58294;SDS011;45705;55.592;37.460;2023-01-01T08:52:23;12.43;;;6.03;;
58294;SDS011;45705;55.592;37.460;2023-01-01T08:54:49;9.02;;;6.03;;
58294;SDS011;45705;55.592;37.460;2023-01-01T08:57:14;8.50;;;6.28;;
58294;SDS011;45705;55.592;37.460;2023-01-01T08:59:41;8.70;;;6.30;;
58294;SDS011;45705;55.592;37.460;2023-01-01T09:02:06;11.32;;;6.82;;
58294;SDS011;45705;55.592;37.460;2023-01-01T09:04:33;11.48;;;6.90;;
58294;SDS011;45705;55.592;37.460;2023-01-01T09:06:59;11.27;;;7.10;;
58294;SDS011;45705;55.592;37.460;2023-01-01T09:09:25;13.13;;;6.55;;
58294;SDS011;45705;55.592;37.460;2023-01-01T09:11:51;10.93;;;6.95;;
58294;SDS011;45705;55.592;37.460;2023-01-01T09:14:18;15.80;;;6.88;;
58294;SDS011;45705;55.592;37.460;2023-01-01T09:16:45;11.77;;;6.85;;
58294;SDS011;45705;55.592;37.460;2023-01-01T09:19:10;11.82;;;7.28;;
58294;SDS011;45705;55.592;37.460;2023-01-01T09:21:36;12.13;;;7.03;;
58294;SDS011;45705;55.592;37.460;2023-01-01T09:24:02;16.08;;;7.70;;
58294;SDS011;45705;55.592;37.460;2023-01-01T09:26:28;11.13;;;7.53;;
58294;SDS011;45705;55.592;37.460;2023-01-01T09:28:54;13.15;;;7.07;;
58294;SDS011;45705;55.592;37.460;2023-01-01T09:31:19;11.27;;;7.15;;
58294;SDS011;45705;55.592;37.460;2023-01-01T09:33:45;13.45;;;7.65;;
58294;SDS011;45705;55.592;37.460;2023-01-01T09:38:40;9.07;;;6.47;;
58294;SDS011;45705;55.592;37.460;2023-01-01T09:46:13;11.18;;;6.85;;
58294;SDS011;45705;55.592;37.460;2023-01-01T09:48:42;12.40;;;7.05;;
58294;SDS011;45705;55.592;37.460;2023-01-01T09:51:18;11.02;;;6.40;;
58294;SDS011;45705;55.592;37.460;2023-01-01T09:54:06;9.55;;;6.88;;
58294;SDS011;45705;55.592;37.460;2023-01-01T09:56:40;8.63;;;6.45;;
58294;SDS011;45705;55.592;37.460;2023-01-01T09:59:09;12.93;;;6.82;;
58294;SDS011;45705;55.592;37.460;2023-01-01T10:09:45;8.20;;;5.90;;
58294;SDS011;45705;55.592;37.460;2023-01-01T10:12:29;7.38;;;5.97;;
58294;SDS011;45705;55.592;37.460;2023-01-01T10:15:41;7.43;;;5.43;;
58294;SDS011;45705;55.592;37.460;2023-01-01T10:17:54;7.90;;;5.88;;
58294;SDS011;45705;55.592;37.460;2023-01-01T10:25:20;6.32;;;5.15;;
58294;SDS011;45705;55.592;37.460;2023-01-01T10:30:19;6.38;;;4.82;;
58294;SDS011;45705;55.592;37.460;2023-01-01T10:32:47;6.35;;;5.15;;
58294;SDS011;45705;55.592;37.460;2023-01-01T10:35:16;6.57;;;4.75;;
58294;SDS011;45705;55.592;37.460;2023-01-01T10:37:44;5.78;;;4.85;;
58294;SDS011;45705;55.592;37.460;2023-01-01T10:40:17;6.28;;;4.63;;
58294;SDS011;45705;55.592;37.460;2023-01-01T10:42:51;6.10;;;5.00;;
58294;SDS011;45705;55.592;37.460;2023-01-01T10:45:38;7.05;;;5.10;;
58294;SDS011;45705;55.592;37.460;2023-01-01T10:50:51;7.03;;;4.20;;
58294;SDS011;45705;55.592;37.460;2023-01-01T10:56:13;5.07;;;4.32;;
58294;SDS011;45705;55.592;37.460;2023-01-01T11:01:21;6.20;;;4.20;;
58294;SDS011;45705;55.592;37.460;2023-01-01T11:06:43;5.25;;;4.45;;
58294;SDS011;45705;55.592;37.460;2023-01-01T11:11:46;5.38;;;4.20;;
58294;SDS011;45705;55.592;37.460;2023-01-01T11:14:20;4.88;;;4.35;;
58294;SDS011;45705;55.592;37.460;2023-01-01T11:16:49;5.75;;;4.68;;
58294;SDS011;45705;55.592;37.460;2023-01-01T11:22:00;4.32;;;3.92;;
58294;SDS011;45705;55.592;37.460;2023-01-01T11:24:27;6.13;;;4.20;;
58294;SDS011;45705;55.592;37.460;2023-01-01T11:27:11;8.40;;;4.35;;
58294;SDS011;45705;55.592;37.460;2023-01-01T11:29:37;5.65;;;3.90;;
58294;SDS011;45705;55.592;37.460;2023-01-01T11:32:04;4.40;;;3.92;;
58294;SDS011;45705;55.592;37.460;2023-01-01T11:34:34;5.40;;;4.20;;
58294;SDS011;45705;55.592;37.460;2023-01-01T11:40:32;5.28;;;3.85;;
58294;SDS011;45705;55.592;37.460;2023-01-01T11:43:01;5.82;;;4.40;;
58294;SDS011;45705;55.592;37.460;2023-01-01T11:45:33;4.82;;;4.20;;
58294;SDS011;45705;55.592;37.460;2023-01-01T11:48:17;4.65;;;3.60;;
58294;SDS011;45705;55.592;37.460;2023-01-01T11:55:53;4.68;;;3.58;;
58294;SDS011;45705;55.592;37.460;2023-01-01T11:58:31;6.28;;;4.00;;
58294;SDS011;45705;55.592;37.460;2023-01-01T12:01:20;4.60;;;3.58;;
58294;SDS011;45705;55.592;37.460;2023-01-01T12:17:21;4.20;;;3.40;;
58294;SDS011;45705;55.592;37.460;2023-01-01T12:24:46;4.15;;;3.58;;
58294;SDS011;45705;55.592;37.460;2023-01-01T12:33:01;3.65;;;3.03;;
58294;SDS011;45705;55.592;37.460;2023-01-01T12:35:35;4.28;;;3.42;;
58294;SDS011;45705;55.592;37.460;2023-01-01T12:49:14;5.90;;;4.03;;
58294;SDS011;45705;55.592;37.460;2023-01-01T12:57:56;4.47;;;3.30;;
58294;SDS011;45705;55.592;37.460;2023-01-01T13:00:40;5.50;;;3.85;;
58294;SDS011;45705;55.592;37.460;2023-01-01T13:03:17;4.40;;;3.38;;
58294;SDS011;45705;55.592;37.460;2023-01-01T13:05:49;4.43;;;3.53;;
58294;SDS011;45705;55.592;37.460;2023-01-01T13:08:18;3.85;;;3.20;;
58294;SDS011;45705;55.592;37.460;2023-01-01T13:10:51;4.50;;;3.45;;
58294;SDS011;45705;55.592;37.460;2023-01-01T13:13:19;4.35;;;3.10;;
58294;SDS011;45705;55.592;37.460;2023-01-01T13:21:17;4.47;;;3.20;;
58294;SDS011;45705;55.592;37.460;2023-01-01T13:32:22;4.28;;;3.35;;
58294;SDS011;45705;55.592;37.460;2023-01-01T13:39:54;6.05;;;3.47;;
58294;SDS011;45705;55.592;37.460;2023-01-01T13:42:38;5.22;;;3.22;;
58294;SDS011;45705;55.592;37.460;2023-01-01T13:51:14;5.38;;;4.00;;
58294;SDS011;45705;55.592;37.460;2023-01-01T14:04:53;5.43;;;4.13;;
58294;SDS011;45705;55.592;37.460;2023-01-01T14:12:49;4.57;;;3.53;;
58294;SDS011;45705;55.592;37.460;2023-01-01T14:15:37;3.55;;;3.17;;
58294;SDS011;45705;55.592;37.460;2023-01-01T14:18:14;4.72;;;3.40;;
58294;SDS011;45705;55.592;37.460;2023-01-01T14:20:47;3.42;;;3.00;;
58294;SDS011;45705;55.592;37.460;2023-01-01T14:25:43;4.13;;;3.00;;
58294;SDS011;45705;55.592;37.460;2023-01-01T14:28:19;4.82;;;3.00;;
58294;SDS011;45705;55.592;37.460;2023-01-01T14:30:49;3.88;;;3.20;;
58294;SDS011;45705;55.592;37.460;2023-01-01T14:33:20;5.18;;;3.38;;
58294;SDS011;45705;55.592;37.460;2023-01-01T14:35:52;4.90;;;3.60;;
58294;SDS011;45705;55.592;37.460;2023-01-01T14:38:23;4.43;;;3.90;;
58294;SDS011;45705;55.592;37.460;2023-01-01T14:41:26;4.03;;;3.33;;
58294;SDS011;45705;55.592;37.460;2023-01-01T14:43:55;5.20;;;3.60;;
58294;SDS011;45705;55.592;37.460;2023-01-01T14:46:23;4.47;;;3.60;;
58294;SDS011;45705;55.592;37.460;2023-01-01T14:48:54;5.18;;;4.00;;
58294;SDS011;45705;55.592;37.460;2023-01-01T14:51:25;3.50;;;2.85;;
58294;SDS011;45705;55.592;37.460;2023-01-01T14:53:54;5.78;;;3.60;;
58294;SDS011;45705;55.592;37.460;2023-01-01T14:59:14;4.68;;;3.40;;
58294;SDS011;45705;55.592;37.460;2023-01-01T15:02:01;4.63;;;3.63;;
58294;SDS011;45705;55.592;37.460;2023-01-01T15:04:36;4.38;;;3.70;;
58294;SDS011;45705;55.592;37.460;2023-01-01T15:07:02;5.65;;;4.18;;
58294;SDS011;45705;55.592;37.460;2023-01-01T15:09:29;5.47;;;3.80;;
58294;SDS011;45705;55.592;37.460;2023-01-01T15:11:56;4.90;;;3.75;;
58294;SDS011;45705;55.592;37.460;2023-01-01T15:16:58;5.97;;;4.55;;
58294;SDS011;45705;55.592;37.460;2023-01-01T15:19:31;5.50;;;4.20;;
58294;SDS011;45705;55.592;37.460;2023-01-01T15:21:59;5.90;;;4.30;;
58294;SDS011;45705;55.592;37.460;2023-01-01T15:24:26;5.57;;;4.45;;
58294;SDS011;45705;55.592;37.460;2023-01-01T15:31:58;6.22;;;4.85;;
58294;SDS011;45705;55.592;37.460;2023-01-01T15:34:48;7.22;;;5.47;;
58294;SDS011;45705;55.592;37.460;2023-01-01T15:42:40;8.02;;;5.63;;
58294;SDS011;45705;55.592;37.460;2023-01-01T15:47:51;7.75;;;5.75;;
58294;SDS011;45705;55.592;37.460;2023-01-01T15:53:38;7.40;;;5.40;;
58294;SDS011;45705;55.592;37.460;2023-01-01T15:55:43;9.75;;;5.82;;
58294;SDS011;45705;55.592;37.460;2023-01-01T15:58:17;8.90;;;5.95;;
58294;SDS011;45705;55.592;37.460;2023-01-01T16:00:56;8.82;;;5.85;;
58294;SDS011;45705;55.592;37.460;2023-01-01T16:03:26;9.48;;;5.85;;
58294;SDS011;45705;55.592;37.460;2023-01-01T16:05:54;11.48;;;8.05;;
58294;SDS011;45705;55.592;37.460;2023-01-01T16:08:21;9.70;;;6.80;;
58294;SDS011;45705;55.592;37.460;2023-01-01T16:10:47;10.43;;;6.65;;
58294;SDS011;45705;55.592;37.460;2023-01-01T16:13:13;11.38;;;6.82;;
58294;SDS011;45705;55.592;37.460;2023-01-01T16:15:52;11.52;;;6.63;;
58294;SDS011;45705;55.592;37.460;2023-01-01T16:18:22;8.13;;;6.07;;
58294;SDS011;45705;55.592;37.460;2023-01-01T16:20:53;10.05;;;6.05;;
58294;SDS011;45705;55.592;37.460;2023-01-01T16:23:19;9.48;;;6.40;;
58294;SDS011;45705;55.592;37.460;2023-01-01T16:25:45;7.80;;;5.78;;
58294;SDS011;45705;55.592;37.460;2023-01-01T16:28:10;9.70;;;6.43;;
58294;SDS011;45705;55.592;37.460;2023-01-01T16:30:36;9.98;;;6.20;;
58294;SDS011;45705;55.592;37.460;2023-01-01T16:33:02;7.70;;;5.88;;
58294;SDS011;45705;55.592;37.460;2023-01-01T16:35:34;10.35;;;6.30;;
58294;SDS011;45705;55.592;37.460;2023-01-01T16:38:00;9.13;;;6.10;;
58294;SDS011;45705;55.592;37.460;2023-01-01T16:40:25;10.82;;;6.43;;
58294;SDS011;45705;55.592;37.460;2023-01-01T16:42:51;8.32;;;5.63;;
58294;SDS011;45705;55.592;37.460;2023-01-01T16:45:17;10.23;;;6.50;;
58294;SDS011;45705;55.592;37.460;2023-01-01T16:47:43;9.77;;;6.05;;
58294;SDS011;45705;55.592;37.460;2023-01-01T16:50:10;10.82;;;7.38;;
58294;SDS011;45705;55.592;37.460;2023-01-01T16:52:36;11.98;;;6.97;;
58294;SDS011;45705;55.592;37.460;2023-01-01T16:55:02;11.63;;;7.25;;
58294;SDS011;45705;55.592;37.460;2023-01-01T16:57:28;10.70;;;7.13;;
58294;SDS011;45705;55.592;37.460;2023-01-01T16:59:54;10.77;;;7.57;;
58294;SDS011;45705;55.592;37.460;2023-01-01T17:02:20;8.82;;;6.47;;
58294;SDS011;45705;55.592;37.460;2023-01-01T17:04:46;12.98;;;7.97;;
58294;SDS011;45705;55.592;37.460;2023-01-01T17:07:12;10.10;;;7.20;;
58294;SDS011;45705;55.592;37.460;2023-01-01T17:09:37;10.45;;;7.18;;
58294;SDS011;45705;55.592;37.460;2023-01-01T17:12:03;13.57;;;7.93;;
58294;SDS011;45705;55.592;37.460;2023-01-01T17:14:29;11.77;;;7.60;;
58294;SDS011;45705;55.592;37.460;2023-01-01T17:16:55;10.77;;;7.05;;
58294;SDS011;45705;55.592;37.460;2023-01-01T17:19:21;10.43;;;7.50;;
58294;SDS011;45705;55.592;37.460;2023-01-01T17:21:46;12.68;;;8.20;;
58294;SDS011;45705;55.592;37.460;2023-01-01T17:24:13;12.90;;;7.75;;
58294;SDS011;45705;55.592;37.460;2023-01-01T17:26:40;12.07;;;7.38;;
58294;SDS011;45705;55.592;37.460;2023-01-01T17:29:05;12.05;;;7.88;;
58294;SDS011;45705;55.592;37.460;2023-01-01T17:31:31;12.40;;;7.63;;
58294;SDS011;45705;55.592;37.460;2023-01-01T17:33:58;13.82;;;8.70;;
58294;SDS011;45705;55.592;37.460;2023-01-01T17:36:23;12.57;;;8.88;;
58294;SDS011;45705;55.592;37.460;2023-01-01T17:38:52;11.95;;;8.75;;
58294;SDS011;45705;55.592;37.460;2023-01-01T17:41:17;17.13;;;9.60;;
58294;SDS011;45705;55.592;37.460;2023-01-01T17:43:44;13.77;;;8.95;;
58294;SDS011;45705;55.592;37.460;2023-01-01T17:46:12;14.65;;;8.40;;
58294;SDS011;45705;55.592;37.460;2023-01-01T17:48:40;14.18;;;9.68;;
58294;SDS011;45705;55.592;37.460;2023-01-01T17:51:06;18.75;;;11.45;;
58294;SDS011;45705;55.592;37.460;2023-01-01T17:53:32;16.77;;;10.85;;